< Typhoon 202023 2021 Season Typhoon 202102 >
Typhoon 202101 (DUJUAN)
General InformationTrack Information on Google MapsDetailed Wind InformationForecast History on Google MapsAccess Analytics Map || NewsDisaster Info.WeblogTrackbackTyphoon FrontTwiphoonTyphoon Now!Typhoon ImaginationJMA Disaster Info. XMLResourceGoogle EarthGE AnimationAtom FeedGeoJSON
Detalied Best Track (Time Zone = UTC)
Year Month Day Hour Lat. Long. Pressure (hPa) Wind (kt) Class Image Chart
2021 2 16 06 6.9 136.9 1004 0 2 Image Chart
2021 2 16 12 6.9 136.2 1006 0 2 Image Chart
2021 2 16 18 6.8 135.1 1004 0 2 Image Chart
2021 2 17 00 6.6 134.2 1004 0 2 Image Chart
2021 2 17 06 6.5 133.7 1002 0 2 Image Chart
2021 2 17 12 6.5 133.2 1004 0 2 Image Chart
2021 2 17 18 6.7 132.7 1002 0 2 Image Chart
2021 2 18 00 7.0 132.6 1000 35 3 Image Chart
2021 2 18 06 7.3 132.1 998 35 3 Image Chart
2021 2 18 12 7.2 131.9 996 40 3 Image Chart
2021 2 18 18 7.1 131.6 996 40 3 Image Chart
2021 2 19 00 6.9 131.1 996 40 3 Image Chart
2021 2 19 06 6.7 130.4 996 40 3 Image Chart
2021 2 19 12 6.1 130.5 998 40 3 Image Chart
2021 2 19 18 6.1 130.9 998 40 3 Image Chart
2021 2 20 00 6.3 131.3 998 40 3 Image Chart
2021 2 20 06 6.9 131.1 998 40 3 Image Chart
2021 2 20 12 7.3 130.4 1000 35 3 Image Chart
2021 2 20 18 7.8 129.7 1000 35 3 Image Chart
2021 2 21 00 8.3 129.1 1000 35 3 Image Chart
2021 2 21 06 9.0 128.4 1000 35 3 Image Chart
2021 2 21 12 10.1 126.9 1004 0 2 Image Chart
2021 2 21 18 11.5 126.0 1006 0 2 Image Chart
2021 2 22 00 12.3 125.0 1008 0 2 Image Chart
2021 2 22 06 13.3 124.1 1006 0 2 Image Chart
2021 2 22 12 14.1 123.3 1008 0 2 Image Chart
2021 2 22 18 14.6 122.6 1008 0 2 Image Chart
2021 2 23 00 15.2 122.2 1010 0 2 Image Chart
Japan Meteorological Agency Best Track Data | Correction Date : 2021-05-20
< Typhoon 202023 2021 Season Typhoon 202102 >

Help